sensor_id;sensor_type;location;lat;lon;timestamp;temperature;humidity
70867;HTU21D;58487;53.474;49.470;2022-09-29T00:00:33;11.72;118.99
70867;HTU21D;58487;53.474;49.470;2022-09-29T00:03:00;11.67;118.99
70867;HTU21D;58487;53.474;49.470;2022-09-29T00:05:26;11.76;118.99
70867;HTU21D;58487;53.474;49.470;2022-09-29T00:07:53;11.59;118.99
70867;HTU21D;58487;53.474;49.470;2022-09-29T00:10:19;11.60;118.99
70867;HTU21D;58487;53.474;49.470;2022-09-29T00:12:45;11.68;118.99
70867;HTU21D;58487;53.474;49.470;2022-09-29T00:15:12;11.82;118.99
70867;HTU21D;58487;53.474;49.470;2022-09-29T00:17:39;11.41;118.99
70867;HTU21D;58487;53.474;49.470;2022-09-29T00:20:05;11.48;118.99
70867;HTU21D;58487;53.474;49.470;2022-09-29T00:22:31;11.63;118.99
70867;HTU21D;58487;53.474;49.470;2022-09-29T00:24:57;11.43;118.99
70867;HTU21D;58487;53.474;49.470;2022-09-29T00:27:23;11.78;118.99
70867;HTU21D;58487;53.474;49.470;2022-09-29T00:29:50;11.85;118.99
70867;HTU21D;58487;53.474;49.470;2022-09-29T00:32:16;11.72;118.99
70867;HTU21D;58487;53.474;49.470;2022-09-29T00:34:42;11.56;118.99
70867;HTU21D;58487;53.474;49.470;2022-09-29T00:37:09;11.64;118.99
70867;HTU21D;58487;53.474;49.470;2022-09-29T00:39:35;11.58;118.99
70867;HTU21D;58487;53.474;49.470;2022-09-29T00:42:02;11.81;118.99
70867;HTU21D;58487;53.474;49.470;2022-09-29T00:47:19;11.77;118.99
70867;HTU21D;58487;53.474;49.470;2022-09-29T00:49:52;11.75;118.99
70867;HTU21D;58487;53.474;49.470;2022-09-29T00:52:25;11.91;118.99
70867;HTU21D;58487;53.474;49.470;2022-09-29T00:55:05;11.57;118.99
70867;HTU21D;58487;53.474;49.470;2022-09-29T00:57:45;11.71;118.99
70867;HTU21D;58487;53.474;49.470;2022-09-29T01:00:14;11.88;118.99
70867;HTU21D;58487;53.474;49.470;2022-09-29T01:02:49;11.90;118.99
70867;HTU21D;58487;53.474;49.470;2022-09-29T01:05:24;11.63;118.99
70867;HTU21D;58487;53.474;49.470;2022-09-29T01:07:51;11.91;118.99
70867;HTU21D;58487;53.474;49.470;2022-09-29T01:10:18;11.64;118.99
70867;HTU21D;58487;53.474;49.470;2022-09-29T01:12:45;11.93;118.99
70867;HTU21D;58487;53.474;49.470;2022-09-29T01:15:13;11.71;118.99
70867;HTU21D;58487;53.474;49.470;2022-09-29T01:17:39;11.77;118.99
70867;HTU21D;58487;53.474;49.470;2022-09-29T01:30:46;11.98;118.99
70867;HTU21D;58487;53.474;49.470;2022-09-29T01:41:17;11.03;118.99
70867;HTU21D;58487;53.474;49.470;2022-09-29T01:46:24;11.07;118.99
70867;HTU21D;58487;53.474;49.470;2022-09-29T01:48:55;11.18;118.99
70867;HTU21D;58487;53.474;49.470;2022-09-29T01:51:28;10.97;118.99
70867;HTU21D;58487;53.474;49.470;2022-09-29T01:54:02;10.90;118.99
70867;HTU21D;58487;53.474;49.470;2022-09-29T01:56:41;11.11;118.99
70867;HTU21D;58487;53.474;49.470;2022-09-29T01:59:20;11.00;118.99
70867;HTU21D;58487;53.474;49.470;2022-09-29T02:01:50;11.10;118.99
70867;HTU21D;58487;53.474;49.470;2022-09-29T02:04:26;11.01;118.99
70867;HTU21D;58487;53.474;49.470;2022-09-29T02:06:59;10.92;118.99
70867;HTU21D;58487;53.474;49.470;2022-09-29T02:09:35;11.00;118.99
70867;HTU21D;58487;53.474;49.470;2022-09-29T02:12:02;11.03;118.99
70867;HTU21D;58487;53.474;49.470;2022-09-29T02:14:35;11.00;118.99
70867;HTU21D;58487;53.474;49.470;2022-09-29T02:19:46;11.07;118.99
70867;HTU21D;58487;53.474;49.470;2022-09-29T02:22:14;11.12;118.99
70867;HTU21D;58487;53.474;49.470;2022-09-29T02:24:41;11.03;118.99
70867;HTU21D;58487;53.474;49.470;2022-09-29T02:27:07;11.12;118.99
70867;HTU21D;58487;53.474;49.470;2022-09-29T02:29:34;10.99;118.99
70867;HTU21D;58487;53.474;49.470;2022-09-29T02:32:02;11.12;118.99
70867;HTU21D;58487;53.474;49.470;2022-09-29T02:34:31;11.11;118.99
70867;HTU21D;58487;53.474;49.470;2022-09-29T02:40:40;10.97;118.99
70867;HTU21D;58487;53.474;49.470;2022-09-29T02:42:44;10.97;118.99
70867;HTU21D;58487;53.474;49.470;2022-09-29T02:59:12;11.11;118.99
70867;HTU21D;58487;53.474;49.470;2022-09-29T03:01:49;10.97;118.99
70867;HTU21D;58487;53.474;49.470;2022-09-29T03:04:16;10.89;118.99
70867;HTU21D;58487;53.474;49.470;2022-09-29T03:06:43;10.93;118.99
70867;HTU21D;58487;53.474;49.470;2022-09-29T03:09:09;10.96;118.99
70867;HTU21D;58487;53.474;49.470;2022-09-29T03:11:35;11.10;118.99
70867;HTU21D;58487;53.474;49.470;2022-09-29T03:14:01;11.30;118.99
70867;HTU21D;58487;53.474;49.470;2022-09-29T03:16:28;11.40;118.99
70867;HTU21D;58487;53.474;49.470;2022-09-29T03:18:54;11.33;118.99
70867;HTU21D;58487;53.474;49.470;2022-09-29T03:21:21;11.12;118.99
70867;HTU21D;58487;53.474;49.470;2022-09-29T03:23:47;11.11;118.99
70867;HTU21D;58487;53.474;49.470;2022-09-29T03:26:13;11.23;118.99
70867;HTU21D;58487;53.474;49.470;2022-09-29T03:28:39;11.05;118.99
70867;HTU21D;58487;53.474;49.470;2022-09-29T03:31:06;11.26;118.99
70867;HTU21D;58487;53.474;49.470;2022-09-29T03:33:35;11.19;118.99
70867;HTU21D;58487;53.474;49.470;2022-09-29T03:36:03;11.49;118.99
70867;HTU21D;58487;53.474;49.470;2022-09-29T03:38:33;11.46;118.99
70867;HTU21D;58487;53.474;49.470;2022-09-29T03:40:59;11.58;118.99
70867;HTU21D;58487;53.474;49.470;2022-09-29T03:43:26;11.55;118.99
70867;HTU21D;58487;53.474;49.470;2022-09-29T03:45:53;11.62;118.99
70867;HTU21D;58487;53.474;49.470;2022-09-29T03:48:21;11.66;118.99
70867;HTU21D;58487;53.474;49.470;2022-09-29T03:50:48;11.60;118.99
70867;HTU21D;58487;53.474;49.470;2022-09-29T03:53:15;11.73;118.99
70867;HTU21D;58487;53.474;49.470;2022-09-29T03:55:45;11.83;118.99
70867;HTU21D;58487;53.474;49.470;2022-09-29T03:58:12;11.70;118.99
70867;HTU21D;58487;53.474;49.470;2022-09-29T04:00:38;11.70;118.99
70867;HTU21D;58487;53.474;49.470;2022-09-29T04:03:04;11.70;118.99
70867;HTU21D;58487;53.474;49.470;2022-09-29T04:05:30;11.79;118.99
70867;HTU21D;58487;53.474;49.470;2022-09-29T04:07:56;11.72;118.99
70867;HTU21D;58487;53.474;49.470;2022-09-29T04:10:22;11.44;118.99
70867;HTU21D;58487;53.474;49.470;2022-09-29T04:12:48;11.29;118.99
70867;HTU21D;58487;53.474;49.470;2022-09-29T04:15:14;11.32;118.99
70867;HTU21D;58487;53.474;49.470;2022-09-29T04:17:40;11.43;118.99
70867;HTU21D;58487;53.474;49.470;2022-09-29T04:20:07;11.29;118.99
70867;HTU21D;58487;53.474;49.470;2022-09-29T04:22:33;11.16;118.99
70867;HTU21D;58487;53.474;49.470;2022-09-29T04:24:59;11.46;118.99
70867;HTU21D;58487;53.474;49.470;2022-09-29T04:27:25;11.45;118.99
70867;HTU21D;58487;53.474;49.470;2022-09-29T04:29:51;11.64;118.99
70867;HTU21D;58487;53.474;49.470;2022-09-29T04:32:17;11.56;118.99
70867;HTU21D;58487;53.474;49.470;2022-09-29T04:34:43;11.67;118.99
70867;HTU21D;58487;53.474;49.470;2022-09-29T04:37:09;11.72;118.99
70867;HTU21D;58487;53.474;49.470;2022-09-29T04:39:36;11.77;118.99
70867;HTU21D;58487;53.474;49.470;2022-09-29T04:42:02;11.90;118.99
70867;HTU21D;58487;53.474;49.470;2022-09-29T04:44:28;11.70;118.99
70867;HTU21D;58487;53.474;49.470;2022-09-29T04:46:55;11.83;118.99
70867;HTU21D;58487;53.474;49.470;2022-09-29T04:49:21;11.60;118.99
70867;HTU21D;58487;53.474;49.470;2022-09-29T04:51:47;11.38;118.99
70867;HTU21D;58487;53.474;49.470;2022-09-29T04:54:13;11.68;118.99
70867;HTU21D;58487;53.474;49.470;2022-09-29T04:56:39;11.79;118.99
70867;HTU21D;58487;53.474;49.470;2022-09-29T04:59:06;11.83;118.99
70867;HTU21D;58487;53.474;49.470;2022-09-29T05:01:32;11.82;118.99
70867;HTU21D;58487;53.474;49.470;2022-09-29T05:03:58;11.74;118.99
70867;HTU21D;58487;53.474;49.470;2022-09-29T05:06:24;12.34;106.98
70867;HTU21D;58487;53.474;49.470;2022-09-29T05:08:50;12.22;97.25
70867;HTU21D;58487;53.474;49.470;2022-09-29T05:11:16;11.75;98.26
70867;HTU21D;58487;53.474;49.470;2022-09-29T05:13:42;12.26;98.50
70867;HTU21D;58487;53.474;49.470;2022-09-29T05:16:08;12.22;118.99
70867;HTU21D;58487;53.474;49.470;2022-09-29T05:18:35;12.08;118.99
70867;HTU21D;58487;53.474;49.470;2022-09-29T05:21:02;12.55;97.56
70867;HTU21D;58487;53.474;49.470;2022-09-29T05:23:29;12.59;100.02
70867;HTU21D;58487;53.474;49.470;2022-09-29T05:26:02;12.66;109.94
70867;HTU21D;58487;53.474;49.470;2022-09-29T05:28:29;12.70;118.99
70867;HTU21D;58487;53.474;49.470;2022-09-29T05:31:00;13.01;118.99
70867;HTU21D;58487;53.474;49.470;2022-09-29T05:33:26;12.49;118.99
70867;HTU21D;58487;53.474;49.470;2022-09-29T05:35:52;11.79;118.99
70867;HTU21D;58487;53.474;49.470;2022-09-29T05:38:18;12.59;118.99
70867;HTU21D;58487;53.474;49.470;2022-09-29T05:40:45;12.82;106.12
70867;HTU21D;58487;53.474;49.470;2022-09-29T05:43:11;12.20;118.99
70867;HTU21D;58487;53.474;49.470;2022-09-29T05:45:37;12.61;118.99
70867;HTU21D;58487;53.474;49.470;2022-09-29T05:48:03;12.64;118.99
70867;HTU21D;58487;53.474;49.470;2022-09-29T05:50:30;12.26;118.99
70867;HTU21D;58487;53.474;49.470;2022-09-29T05:53:03;12.23;118.99
70867;HTU21D;58487;53.474;49.470;2022-09-29T05:55:29;12.22;118.99
70867;HTU21D;58487;53.474;49.470;2022-09-29T05:57:55;12.29;118.99
70867;HTU21D;58487;53.474;49.470;2022-09-29T06:00:21;12.55;118.99
70867;HTU21D;58487;53.474;49.470;2022-09-29T06:02:48;12.32;118.99
70867;HTU21D;58487;53.474;49.470;2022-09-29T06:05:14;12.61;118.99
70867;HTU21D;58487;53.474;49.470;2022-09-29T06:07:40;12.72;118.99
70867;HTU21D;58487;53.474;49.470;2022-09-29T06:10:06;12.62;118.99
70867;HTU21D;58487;53.474;49.470;2022-09-29T06:12:34;12.19;118.99
70867;HTU21D;58487;53.474;49.470;2022-09-29T06:15:04;12.37;118.99
70867;HTU21D;58487;53.474;49.470;2022-09-29T06:17:31;12.34;118.99
70867;HTU21D;58487;53.474;49.470;2022-09-29T06:19:59;12.53;118.99
70867;HTU21D;58487;53.474;49.470;2022-09-29T06:22:25;12.47;118.99
70867;HTU21D;58487;53.474;49.470;2022-09-29T06:24:52;12.30;118.99
70867;HTU21D;58487;53.474;49.470;2022-09-29T06:27:19;12.28;118.99
70867;HTU21D;58487;53.474;49.470;2022-09-29T06:29:45;12.30;118.99
70867;HTU21D;58487;53.474;49.470;2022-09-29T06:32:11;12.37;118.99
70867;HTU21D;58487;53.474;49.470;2022-09-29T06:34:37;12.07;118.99
70867;HTU21D;58487;53.474;49.470;2022-09-29T06:37:24;12.20;118.99
70867;HTU21D;58487;53.474;49.470;2022-09-29T06:40:09;12.15;118.99
70867;HTU21D;58487;53.474;49.470;2022-09-29T06:42:36;12.40;118.99
70867;HTU21D;58487;53.474;49.470;2022-09-29T06:45:02;12.20;118.99
70867;HTU21D;58487;53.474;49.470;2022-09-29T06:47:29;12.27;118.99
70867;HTU21D;58487;53.474;49.470;2022-09-29T06:49:55;12.51;118.99
70867;HTU21D;58487;53.474;49.470;2022-09-29T06:52:22;12.70;118.99
70867;HTU21D;58487;53.474;49.470;2022-09-29T06:54:48;12.36;118.99
70867;HTU21D;58487;53.474;49.470;2022-09-29T06:57:14;12.37;118.99
70867;HTU21D;58487;53.474;49.470;2022-09-29T06:59:40;12.50;111.71
70867;HTU21D;58487;53.474;49.470;2022-09-29T07:02:09;12.81;103.64
70867;HTU21D;58487;53.474;49.470;2022-09-29T07:04:35;12.67;116.67
70867;HTU21D;58487;53.474;49.470;2022-09-29T07:07:02;12.82;118.99
70867;HTU21D;58487;53.474;49.470;2022-09-29T07:09:28;12.82;118.99
70867;HTU21D;58487;53.474;49.470;2022-09-29T07:11:54;12.89;118.99
70867;HTU21D;58487;53.474;49.470;2022-09-29T07:14:26;13.05;118.99
70867;HTU21D;58487;53.474;49.470;2022-09-29T07:16:52;12.17;118.99
70867;HTU21D;58487;53.474;49.470;2022-09-29T07:19:19;12.57;118.99
70867;HTU21D;58487;53.474;49.470;2022-09-29T07:21:46;12.80;118.99
70867;HTU21D;58487;53.474;49.470;2022-09-29T07:24:12;12.73;118.99
70867;HTU21D;58487;53.474;49.470;2022-09-29T07:26:38;12.69;109.68
70867;HTU21D;58487;53.474;49.470;2022-09-29T07:29:04;12.76;109.73
70867;HTU21D;58487;53.474;49.470;2022-09-29T07:31:30;12.78;113.75
70867;HTU21D;58487;53.474;49.470;2022-09-29T07:33:56;12.92;118.99
70867;HTU21D;58487;53.474;49.470;2022-09-29T07:36:23;12.51;118.99
70867;HTU21D;58487;53.474;49.470;2022-09-29T07:38:51;12.29;118.99
70867;HTU21D;58487;53.474;49.470;2022-09-29T07:41:19;12.81;118.99
70867;HTU21D;58487;53.474;49.470;2022-09-29T07:43:45;12.97;118.99
70867;HTU21D;58487;53.474;49.470;2022-09-29T07:46:11;12.94;106.11
70867;HTU21D;58487;53.474;49.470;2022-09-29T07:48:38;12.89;112.02
70867;HTU21D;58487;53.474;49.470;2022-09-29T07:51:13;13.02;114.80
70867;HTU21D;58487;53.474;49.470;2022-09-29T07:53:40;12.94;102.96
70867;HTU21D;58487;53.474;49.470;2022-09-29T07:56:17;13.37;112.01
70867;HTU21D;58487;53.474;49.470;2022-09-29T07:58:45;13.10;111.50
70867;HTU21D;58487;53.474;49.470;2022-09-29T08:01:13;12.80;118.99
70867;HTU21D;58487;53.474;49.470;2022-09-29T08:03:42;12.45;118.99
70867;HTU21D;58487;53.474;49.470;2022-09-29T08:06:10;12.87;118.99
70867;HTU21D;58487;53.474;49.470;2022-09-29T08:08:40;13.11;118.99
70867;HTU21D;58487;53.474;49.470;2022-09-29T08:11:13;13.25;118.99
70867;HTU21D;58487;53.474;49.470;2022-09-29T08:13:39;13.26;118.99
70867;HTU21D;58487;53.474;49.470;2022-09-29T08:16:09;12.46;118.99
70867;HTU21D;58487;53.474;49.470;2022-09-29T08:18:35;12.60;118.99
70867;HTU21D;58487;53.474;49.470;2022-09-29T08:21:03;13.23;118.99
70867;HTU21D;58487;53.474;49.470;2022-09-29T08:23:36;12.72;118.99
70867;HTU21D;58487;53.474;49.470;2022-09-29T08:26:08;12.58;118.99
70867;HTU21D;58487;53.474;49.470;2022-09-29T08:28:36;12.94;118.99
70867;HTU21D;58487;53.474;49.470;2022-09-29T08:31:16;12.81;118.99
70867;HTU21D;58487;53.474;49.470;2022-09-29T08:33:48;12.80;118.99
70867;HTU21D;58487;53.474;49.470;2022-09-29T08:36:15;12.93;118.99
70867;HTU21D;58487;53.474;49.470;2022-09-29T08:38:50;12.71;118.99
70867;HTU21D;58487;53.474;49.470;2022-09-29T08:45:01;12.30;118.99
70867;HTU21D;58487;53.474;49.470;2022-09-29T08:47:36;12.28;118.99
70867;HTU21D;58487;53.474;49.470;2022-09-29T08:52:37;12.50;118.99
70867;HTU21D;58487;53.474;49.470;2022-09-29T08:57:45;12.76;118.99
70867;HTU21D;58487;53.474;49.470;2022-09-29T09:00:13;12.79;118.99
70867;HTU21D;58487;53.474;49.470;2022-09-29T09:03:00;12.62;118.99
70867;HTU21D;58487;53.474;49.470;2022-09-29T09:05:44;12.94;118.99
70867;HTU21D;58487;53.474;49.470;2022-09-29T09:11:19;12.41;118.99
70867;HTU21D;58487;53.474;49.470;2022-09-29T09:13:54;12.20;118.99
70867;HTU21D;58487;53.474;49.470;2022-09-29T09:22:13;12.23;118.99
70867;HTU21D;58487;53.474;49.470;2022-09-29T09:25:01;11.89;118.99
70867;HTU21D;58487;53.474;49.470;2022-09-29T09:28:15;11.62;118.99
70867;HTU21D;58487;53.474;49.470;2022-09-29T09:35:53;12.17;118.99
70867;HTU21D;58487;53.474;49.470;2022-09-29T09:38:38;11.88;118.99
70867;HTU21D;58487;53.474;49.470;2022-09-29T09:41:07;12.50;118.99
70867;HTU21D;58487;53.474;49.470;2022-09-29T09:43:40;12.79;118.99
70867;HTU21D;58487;53.474;49.470;2022-09-29T09:46:24;12.95;118.99
70867;HTU21D;58487;53.474;49.470;2022-09-29T09:49:05;12.65;118.99
70867;HTU21D;58487;53.474;49.470;2022-09-29T09:51:44;12.78;118.99
70867;HTU21D;58487;53.474;49.470;2022-09-29T09:54:33;12.95;118.99
70867;HTU21D;58487;53.474;49.470;2022-09-29T10:02:17;12.84;118.99
70867;HTU21D;58487;53.474;49.470;2022-09-29T10:04:48;12.86;118.99
70867;HTU21D;58487;53.474;49.470;2022-09-29T10:07:17;12.66;118.99
70867;HTU21D;58487;53.474;49.470;2022-09-29T10:09:44;12.51;118.99
70867;HTU21D;58487;53.474;49.470;2022-09-29T10:12:18;12.69;118.99
70867;HTU21D;58487;53.474;49.470;2022-09-29T10:14:53;12.91;118.99
70867;HTU21D;58487;53.474;49.470;2022-09-29T10:17:25;12.81;118.99
70867;HTU21D;58487;53.474;49.470;2022-09-29T10:19:59;12.88;118.99
70867;HTU21D;58487;53.474;49.470;2022-09-29T10:22:27;12.76;118.99
70867;HTU21D;58487;53.474;49.470;2022-09-29T10:27:31;12.88;118.99
70867;HTU21D;58487;53.474;49.470;2022-09-29T10:29:57;12.95;118.99
70867;HTU21D;58487;53.474;49.470;2022-09-29T10:32:30;12.90;118.99
70867;HTU21D;58487;53.474;49.470;2022-09-29T10:37:41;12.51;118.99
70867;HTU21D;58487;53.474;49.470;2022-09-29T10:42:43;12.75;118.99
70867;HTU21D;58487;53.474;49.470;2022-09-29T10:45:27;12.90;118.99
70867;HTU21D;58487;53.474;49.470;2022-09-29T10:50:30;13.22;118.99
70867;HTU21D;58487;53.474;49.470;2022-09-29T10:53:02;12.84;118.99
70867;HTU21D;58487;53.474;49.470;2022-09-29T10:55:46;12.92;118.99
70867;HTU21D;58487;53.474;49.470;2022-09-29T10:58:39;12.75;118.99
70867;HTU21D;58487;53.474;49.470;2022-09-29T11:01:15;12.57;118.99
70867;HTU21D;58487;53.474;49.470;2022-09-29T11:03:52;12.70;118.99
70867;HTU21D;58487;53.474;49.470;2022-09-29T11:06:27;12.79;118.99
70867;HTU21D;58487;53.474;49.470;2022-09-29T11:19:51;12.97;118.99
70867;HTU21D;58487;53.474;49.470;2022-09-29T11:22:31;12.94;118.99
70867;HTU21D;58487;53.474;49.470;2022-09-29T11:27:52;12.92;118.99
70867;HTU21D;58487;53.474;49.470;2022-09-29T11:30:23;13.11;118.99
70867;HTU21D;58487;53.474;49.470;2022-09-29T11:35:49;13.40;118.99
70867;HTU21D;58487;53.474;49.470;2022-09-29T11:41:25;12.66;118.99
70867;HTU21D;58487;53.474;49.470;2022-09-29T11:47:05;12.88;118.99
70867;HTU21D;58487;53.474;49.470;2022-09-29T11:55:06;12.97;118.99
70867;HTU21D;58487;53.474;49.470;2022-09-29T11:58:07;13.30;118.99
70867;HTU21D;58487;53.474;49.470;2022-09-29T12:17:12;13.11;118.99
70867;HTU21D;58487;53.474;49.470;2022-09-29T12:19:41;12.94;118.99
70867;HTU21D;58487;53.474;49.470;2022-09-29T12:22:12;13.07;118.99
70867;HTU21D;58487;53.474;49.470;2022-09-29T12:24:43;13.21;118.99
70867;HTU21D;58487;53.474;49.470;2022-09-29T12:29:49;13.43;118.99
70867;HTU21D;58487;53.474;49.470;2022-09-29T12:32:20;13.40;118.99
70867;HTU21D;58487;53.474;49.470;2022-09-29T12:34:55;13.48;118.99
70867;HTU21D;58487;53.474;49.470;2022-09-29T12:38:05;13.22;118.99
70867;HTU21D;58487;53.474;49.470;2022-09-29T12:40:38;13.69;118.99
70867;HTU21D;58487;53.474;49.470;2022-09-29T12:43:11;13.35;118.99
70867;HTU21D;58487;53.474;49.470;2022-09-29T12:48:53;13.36;118.99
70867;HTU21D;58487;53.474;49.470;2022-09-29T12:54:32;13.18;118.99
70867;HTU21D;58487;53.474;49.470;2022-09-29T12:57:15;13.31;118.99
70867;HTU21D;58487;53.474;49.470;2022-09-29T12:59:56;13.21;118.99
70867;HTU21D;58487;53.474;49.470;2022-09-29T13:11:21;13.04;118.99
70867;HTU21D;58487;53.474;49.470;2022-09-29T13:29:31;13.08;118.99
70867;HTU21D;58487;53.474;49.470;2022-09-29T13:32:01;12.90;118.99
70867;HTU21D;58487;53.474;49.470;2022-09-29T13:34:31;13.15;118.99
70867;HTU21D;58487;53.474;49.470;2022-09-29T13:37:14;12.78;118.99
70867;HTU21D;58487;53.474;49.470;2022-09-29T13:39:44;13.35;118.99
70867;HTU21D;58487;53.474;49.470;2022-09-29T13:47:50;13.38;118.99
70867;HTU21D;58487;53.474;49.470;2022-09-29T13:50:43;13.00;118.99
70867;HTU21D;58487;53.474;49.470;2022-09-29T13:55:55;13.08;118.99
70867;HTU21D;58487;53.474;49.470;2022-09-29T13:58:36;12.96;118.99
70867;HTU21D;58487;53.474;49.470;2022-09-29T14:01:08;13.02;118.99
70867;HTU21D;58487;53.474;49.470;2022-09-29T14:03:42;13.44;118.99
70867;HTU21D;58487;53.474;49.470;2022-09-29T14:06:22;13.33;118.99
70867;HTU21D;58487;53.474;49.470;2022-09-29T14:09:11;13.51;118.99
70867;HTU21D;58487;53.474;49.470;2022-09-29T14:11:49;12.91;118.99
70867;HTU21D;58487;53.474;49.470;2022-09-29T14:14:23;12.94;118.99
70867;HTU21D;58487;53.474;49.470;2022-09-29T14:16:57;13.21;118.99
70867;HTU21D;58487;53.474;49.470;2022-09-29T14:27:42;13.32;118.99
70867;HTU21D;58487;53.474;49.470;2022-09-29T14:30:19;13.77;118.99
70867;HTU21D;58487;53.474;49.470;2022-09-29T14:35:36;13.61;118.99
70867;HTU21D;58487;53.474;49.470;2022-09-29T14:38:16;13.71;118.99
70867;HTU21D;58487;53.474;49.470;2022-09-29T14:43:45;13.68;118.99
70867;HTU21D;58487;53.474;49.470;2022-09-29T14:56:10;13.85;105.70
70867;HTU21D;58487;53.474;49.470;2022-09-29T14:58:44;13.18;118.99
70867;HTU21D;58487;53.474;49.470;2022-09-29T15:01:25;13.70;118.99
70867;HTU21D;58487;53.474;49.470;2022-09-29T15:04:14;13.83;118.99
70867;HTU21D;58487;53.474;49.470;2022-09-29T15:06:48;13.70;118.99
70867;HTU21D;58487;53.474;49.470;2022-09-29T15:09:24;13.83;117.63
70867;HTU21D;58487;53.474;49.470;2022-09-29T15:11:57;14.06;112.89
70867;HTU21D;58487;53.474;49.470;2022-09-29T15:14:30;14.07;114.86
70867;HTU21D;58487;53.474;49.470;2022-09-29T15:25:54;13.91;118.99
70867;HTU21D;58487;53.474;49.470;2022-09-29T15:28:36;12.60;118.99
70867;HTU21D;58487;53.474;49.470;2022-09-29T15:31:10;13.39;118.99
70867;HTU21D;58487;53.474;49.470;2022-09-29T15:33:38;13.86;118.99
70867;HTU21D;58487;53.474;49.470;2022-09-29T15:36:26;13.92;118.99
70867;HTU21D;58487;53.474;49.470;2022-09-29T15:39:00;13.41;118.99
70867;HTU21D;58487;53.474;49.470;2022-09-29T15:41:30;13.80;118.99
70867;HTU21D;58487;53.474;49.470;2022-09-29T15:44:16;13.76;118.99
70867;HTU21D;58487;53.474;49.470;2022-09-29T15:46:50;13.99;118.99
70867;HTU21D;58487;53.474;49.470;2022-09-29T15:49:21;14.05;118.99
70867;HTU21D;58487;53.474;49.470;2022-09-29T15:52:01;14.11;99.16
70867;HTU21D;58487;53.474;49.470;2022-09-29T15:54:29;13.49;93.77
70867;HTU21D;58487;53.474;49.470;2022-09-29T15:57:03;14.09;95.55
70867;HTU21D;58487;53.474;49.470;2022-09-29T15:59:52;14.06;104.83
70867;HTU21D;58487;53.474;49.470;2022-09-29T16:02:35;14.05;101.83
70867;HTU21D;58487;53.474;49.470;2022-09-29T16:05:08;13.98;118.99
70867;HTU21D;58487;53.474;49.470;2022-09-29T16:07:54;13.97;109.48
70867;HTU21D;58487;53.474;49.470;2022-09-29T16:10:27;13.68;97.43
70867;HTU21D;58487;53.474;49.470;2022-09-29T16:12:57;14.06;118.60
70867;HTU21D;58487;53.474;49.470;2022-09-29T16:15:36;13.90;99.16
70867;HTU21D;58487;53.474;49.470;2022-09-29T16:20:53;13.89;118.99
70867;HTU21D;58487;53.474;49.470;2022-09-29T16:23:33;14.03;118.99
70867;HTU21D;58487;53.474;49.470;2022-09-29T16:28:37;14.00;104.76
70867;HTU21D;58487;53.474;49.470;2022-09-29T16:31:18;13.89;110.13
70867;HTU21D;58487;53.474;49.470;2022-09-29T16:33:46;14.14;118.99
70867;HTU21D;58487;53.474;49.470;2022-09-29T16:36:25;13.89;118.99
70867;HTU21D;58487;53.474;49.470;2022-09-29T16:38:53;13.93;118.99
70867;HTU21D;58487;53.474;49.470;2022-09-29T16:41:32;13.88;118.99
70867;HTU21D;58487;53.474;49.470;2022-09-29T16:44:17;13.76;118.99
70867;HTU21D;58487;53.474;49.470;2022-09-29T16:46:58;13.75;118.99
70867;HTU21D;58487;53.474;49.470;2022-09-29T16:49:32;13.78;118.99
70867;HTU21D;58487;53.474;49.470;2022-09-29T16:54:45;13.44;103.64
70867;HTU21D;58487;53.474;49.470;2022-09-29T16:59:52;13.51;118.99
70867;HTU21D;58487;53.474;49.470;2022-09-29T17:02:19;13.35;118.99
70867;HTU21D;58487;53.474;49.470;2022-09-29T17:04:50;13.35;118.99
70867;HTU21D;58487;53.474;49.470;2022-09-29T17:07:19;13.27;118.99
70867;HTU21D;58487;53.474;49.470;2022-09-29T17:09:48;13.20;118.99
70867;HTU21D;58487;53.474;49.470;2022-09-29T17:12:16;13.14;118.99
70867;HTU21D;58487;53.474;49.470;2022-09-29T17:14:42;13.17;118.99
70867;HTU21D;58487;53.474;49.470;2022-09-29T17:17:24;13.37;118.99
70867;HTU21D;58487;53.474;49.470;2022-09-29T17:19:52;13.03;118.99
70867;HTU21D;58487;53.474;49.470;2022-09-29T17:22:32;12.96;118.99
70867;HTU21D;58487;53.474;49.470;2022-09-29T17:24:59;12.90;118.99
70867;HTU21D;58487;53.474;49.470;2022-09-29T17:27:29;12.86;118.99
70867;HTU21D;58487;53.474;49.470;2022-09-29T17:30:16;13.05;118.99
70867;HTU21D;58487;53.474;49.470;2022-09-29T17:32:46;13.09;118.99
70867;HTU21D;58487;53.474;49.470;2022-09-29T17:35:16;12.99;118.99
70867;HTU21D;58487;53.474;49.470;2022-09-29T17:37:46;12.71;118.99
70867;HTU21D;58487;53.474;49.470;2022-09-29T17:40:22;12.88;118.99
70867;HTU21D;58487;53.474;49.470;2022-09-29T17:42:49;13.14;118.99
70867;HTU21D;58487;53.474;49.470;2022-09-29T17:45:17;12.91;118.99
70867;HTU21D;58487;53.474;49.470;2022-09-29T17:47:45;12.89;118.99
70867;HTU21D;58487;53.474;49.470;2022-09-29T17:50:33;13.14;118.99
70867;HTU21D;58487;53.474;49.470;2022-09-29T17:53:02;13.54;118.99
70867;HTU21D;58487;53.474;49.470;2022-09-29T17:55:32;13.50;118.99
70867;HTU21D;58487;53.474;49.470;2022-09-29T17:57:59;13.58;118.99
70867;HTU21D;58487;53.474;49.470;2022-09-29T18:00:29;13.41;118.99
70867;HTU21D;58487;53.474;49.470;2022-09-29T18:02:56;13.32;118.99
70867;HTU21D;58487;53.474;49.470;2022-09-29T18:05:25;13.40;118.99
70867;HTU21D;58487;53.474;49.470;2022-09-29T18:07:54;13.07;118.99
70867;HTU21D;58487;53.474;49.470;2022-09-29T18:12:52;13.07;118.99
70867;HTU21D;58487;53.474;49.470;2022-09-29T18:15:19;13.19;118.99
70867;HTU21D;58487;53.474;49.470;2022-09-29T18:17:45;13.25;118.99
70867;HTU21D;58487;53.474;49.470;2022-09-29T18:20:17;13.12;118.99
70867;HTU21D;58487;53.474;49.470;2022-09-29T18:22:44;13.26;118.99
70867;HTU21D;58487;53.474;49.470;2022-09-29T18:25:13;13.29;118.99
70867;HTU21D;58487;53.474;49.470;2022-09-29T18:27:39;13.18;118.99
70867;HTU21D;58487;53.474;49.470;2022-09-29T18:30:12;13.08;118.99
70867;HTU21D;58487;53.474;49.470;2022-09-29T18:32:46;12.61;118.99
70867;HTU21D;58487;53.474;49.470;2022-09-29T18:35:20;13.07;118.99
70867;HTU21D;58487;53.474;49.470;2022-09-29T18:37:46;12.78;118.99
70867;HTU21D;58487;53.474;49.470;2022-09-29T18:40:13;12.31;118.99
70867;HTU21D;58487;53.474;49.470;2022-09-29T18:42:41;13.03;118.99
70867;HTU21D;58487;53.474;49.470;2022-09-29T18:45:12;12.85;118.99